sensor_id;sensor_type;location;lat;lon;timestamp;temperature;humidity
17215;DHT22;8723;51.502;6.918;2023-05-07T00:01:42;15.30;1.00
17215;DHT22;8723;51.502;6.918;2023-05-07T00:04:08;15.20;1.00
17215;DHT22;8723;51.502;6.918;2023-05-07T00:06:35;15.20;1.00
17215;DHT22;8723;51.502;6.918;2023-05-07T00:09:02;15.20;1.00
17215;DHT22;8723;51.502;6.918;2023-05-07T00:11:30;15.20;1.00
17215;DHT22;8723;51.502;6.918;2023-05-07T00:13:57;15.10;99.90
17215;DHT22;8723;51.502;6.918;2023-05-07T00:16:25;15.10;1.00
17215;DHT22;8723;51.502;6.918;2023-05-07T00:18:52;15.10;1.00
17215;DHT22;8723;51.502;6.918;2023-05-07T00:21:19;15.10;1.00
17215;DHT22;8723;51.502;6.918;2023-05-07T00:23:46;15.10;1.00
17215;DHT22;8723;51.502;6.918;2023-05-07T00:26:13;15.10;10.30
17215;DHT22;8723;51.502;6.918;2023-05-07T00:28:41;15.10;14.30
17215;DHT22;8723;51.502;6.918;2023-05-07T00:31:08;15.00;99.90
17215;DHT22;8723;51.502;6.918;2023-05-07T00:33:37;15.00;99.90
17215;DHT22;8723;51.502;6.918;2023-05-07T00:36:04;15.00;99.90
17215;DHT22;8723;51.502;6.918;2023-05-07T00:38:31;15.00;1.00
17215;DHT22;8723;51.502;6.918;2023-05-07T00:40:58;14.90;1.00
17215;DHT22;8723;51.502;6.918;2023-05-07T00:43:25;15.00;1.00
17215;DHT22;8723;51.502;6.918;2023-05-07T00:45:52;15.00;1.00
17215;DHT22;8723;51.502;6.918;2023-05-07T00:48:19;14.90;91.30
17215;DHT22;8723;51.502;6.918;2023-05-07T00:50:48;14.90;99.90
17215;DHT22;8723;51.502;6.918;2023-05-07T00:53:14;14.80;99.90
17215;DHT22;8723;51.502;6.918;2023-05-07T00:55:42;14.80;1.00
17215;DHT22;8723;51.502;6.918;2023-05-07T00:58:09;14.80;1.00
17215;DHT22;8723;51.502;6.918;2023-05-07T01:00:36;14.80;1.00
17215;DHT22;8723;51.502;6.918;2023-05-07T01:03:03;14.80;99.90
17215;DHT22;8723;51.502;6.918;2023-05-07T01:05:30;14.80;99.90
17215;DHT22;8723;51.502;6.918;2023-05-07T01:07:59;14.80;99.90
17215;DHT22;8723;51.502;6.918;2023-05-07T01:10:26;14.80;1.00
17215;DHT22;8723;51.502;6.918;2023-05-07T01:12:53;14.80;1.00
17215;DHT22;8723;51.502;6.918;2023-05-07T01:15:20;14.80;1.00
17215;DHT22;8723;51.502;6.918;2023-05-07T01:17:47;14.70;1.00
17215;DHT22;8723;51.502;6.918;2023-05-07T01:20:14;14.60;1.00
17215;DHT22;8723;51.502;6.918;2023-05-07T01:22:43;14.70;1.00
17215;DHT22;8723;51.502;6.918;2023-05-07T01:25:10;14.70;1.00
17215;DHT22;8723;51.502;6.918;2023-05-07T01:27:37;14.60;26.40
17215;DHT22;8723;51.502;6.918;2023-05-07T01:30:04;14.60;99.90
17215;DHT22;8723;51.502;6.918;2023-05-07T01:32:36;14.60;1.00
17215;DHT22;8723;51.502;6.918;2023-05-07T01:35:07;14.70;1.00
17215;DHT22;8723;51.502;6.918;2023-05-07T01:37:36;14.60;1.00
17215;DHT22;8723;51.502;6.918;2023-05-07T01:40:06;14.70;1.00
17215;DHT22;8723;51.502;6.918;2023-05-07T01:42:35;14.70;1.00
17215;DHT22;8723;51.502;6.918;2023-05-07T01:45:06;14.60;55.20
17215;DHT22;8723;51.502;6.918;2023-05-07T01:47:38;14.60;99.90
17215;DHT22;8723;51.502;6.918;2023-05-07T01:50:09;14.60;99.90
17215;DHT22;8723;51.502;6.918;2023-05-07T01:52:39;14.60;99.90
17215;DHT22;8723;51.502;6.918;2023-05-07T01:55:11;14.60;99.90
17215;DHT22;8723;51.502;6.918;2023-05-07T01:57:41;14.60;99.90
17215;DHT22;8723;51.502;6.918;2023-05-07T02:00:11;14.60;99.90
17215;DHT22;8723;51.502;6.918;2023-05-07T02:02:42;14.60;99.90
17215;DHT22;8723;51.502;6.918;2023-05-07T02:05:11;14.60;99.90
17215;DHT22;8723;51.502;6.918;2023-05-07T02:07:38;14.60;99.90
17215;DHT22;8723;51.502;6.918;2023-05-07T02:10:07;14.60;99.90
17215;DHT22;8723;51.502;6.918;2023-05-07T02:12:37;14.60;99.90
17215;DHT22;8723;51.502;6.918;2023-05-07T02:15:05;14.60;99.90
17215;DHT22;8723;51.502;6.918;2023-05-07T02:17:33;14.60;99.90
17215;DHT22;8723;51.502;6.918;2023-05-07T02:20:05;14.60;99.90
17215;DHT22;8723;51.502;6.918;2023-05-07T02:22:40;14.60;99.90
17215;DHT22;8723;51.502;6.918;2023-05-07T02:25:09;14.50;99.90
17215;DHT22;8723;51.502;6.918;2023-05-07T02:27:39;14.40;99.90
17215;DHT22;8723;51.502;6.918;2023-05-07T02:30:07;14.50;99.90
17215;DHT22;8723;51.502;6.918;2023-05-07T02:32:35;14.50;99.90
17215;DHT22;8723;51.502;6.918;2023-05-07T02:35:05;14.40;99.90
17215;DHT22;8723;51.502;6.918;2023-05-07T02:37:34;14.40;99.90
17215;DHT22;8723;51.502;6.918;2023-05-07T02:40:00;14.40;99.90
17215;DHT22;8723;51.502;6.918;2023-05-07T02:42:30;14.40;99.90
17215;DHT22;8723;51.502;6.918;2023-05-07T02:44:58;14.40;99.90
17215;DHT22;8723;51.502;6.918;2023-05-07T02:47:25;14.40;99.90
17215;DHT22;8723;51.502;6.918;2023-05-07T02:49:54;14.40;99.90
17215;DHT22;8723;51.502;6.918;2023-05-07T02:52:21;14.30;99.90
17215;DHT22;8723;51.502;6.918;2023-05-07T02:54:48;14.30;99.90
17215;DHT22;8723;51.502;6.918;2023-05-07T02:57:14;14.30;99.90
17215;DHT22;8723;51.502;6.918;2023-05-07T02:59:41;14.30;99.90
17215;DHT22;8723;51.502;6.918;2023-05-07T03:02:11;14.30;99.90
17215;DHT22;8723;51.502;6.918;2023-05-07T03:04:40;14.30;99.90
17215;DHT22;8723;51.502;6.918;2023-05-07T03:07:09;14.30;99.90
17215;DHT22;8723;51.502;6.918;2023-05-07T03:09:39;14.30;99.90
17215;DHT22;8723;51.502;6.918;2023-05-07T03:12:07;14.20;99.90
17215;DHT22;8723;51.502;6.918;2023-05-07T03:14:35;14.10;99.90
17215;DHT22;8723;51.502;6.918;2023-05-07T03:17:02;14.20;99.90
17215;DHT22;8723;51.502;6.918;2023-05-07T03:19:30;14.20;99.90
17215;DHT22;8723;51.502;6.918;2023-05-07T03:21:57;14.20;99.90
17215;DHT22;8723;51.502;6.918;2023-05-07T03:24:24;14.20;99.90
17215;DHT22;8723;51.502;6.918;2023-05-07T03:26:51;14.20;99.90
17215;DHT22;8723;51.502;6.918;2023-05-07T03:29:18;14.20;99.90
17215;DHT22;8723;51.502;6.918;2023-05-07T03:31:45;14.20;99.90
17215;DHT22;8723;51.502;6.918;2023-05-07T03:34:12;14.20;99.90
17215;DHT22;8723;51.502;6.918;2023-05-07T03:36:40;14.20;99.90
17215;DHT22;8723;51.502;6.918;2023-05-07T03:39:06;14.20;99.90
17215;DHT22;8723;51.502;6.918;2023-05-07T03:41:34;14.20;99.90
17215;DHT22;8723;51.502;6.918;2023-05-07T03:44:01;14.10;99.90
17215;DHT22;8723;51.502;6.918;2023-05-07T03:46:27;14.10;99.90
17215;DHT22;8723;51.502;6.918;2023-05-07T03:48:54;14.10;99.90
17215;DHT22;8723;51.502;6.918;2023-05-07T03:51:21;14.10;99.90
17215;DHT22;8723;51.502;6.918;2023-05-07T03:53:49;14.10;99.90
17215;DHT22;8723;51.502;6.918;2023-05-07T03:56:18;14.10;99.90
17215;DHT22;8723;51.502;6.918;2023-05-07T03:58:47;14.10;99.90
17215;DHT22;8723;51.502;6.918;2023-05-07T04:01:14;14.10;99.90
17215;DHT22;8723;51.502;6.918;2023-05-07T04:03:41;14.00;99.90
17215;DHT22;8723;51.502;6.918;2023-05-07T04:06:08;14.00;99.90
17215;DHT22;8723;51.502;6.918;2023-05-07T04:08:35;14.10;99.90
17215;DHT22;8723;51.502;6.918;2023-05-07T04:11:03;14.10;99.90
17215;DHT22;8723;51.502;6.918;2023-05-07T04:13:30;14.10;99.90
17215;DHT22;8723;51.502;6.918;2023-05-07T04:15:57;14.00;99.90
17215;DHT22;8723;51.502;6.918;2023-05-07T04:18:24;14.00;99.90
17215;DHT22;8723;51.502;6.918;2023-05-07T04:20:51;14.10;99.90
17215;DHT22;8723;51.502;6.918;2023-05-07T04:23:17;14.10;99.90
17215;DHT22;8723;51.502;6.918;2023-05-07T04:25:45;14.00;99.90
17215;DHT22;8723;51.502;6.918;2023-05-07T04:28:13;14.00;99.90
17215;DHT22;8723;51.502;6.918;2023-05-07T04:30:40;14.10;99.90
17215;DHT22;8723;51.502;6.918;2023-05-07T04:33:07;14.10;99.90
17215;DHT22;8723;51.502;6.918;2023-05-07T04:35:35;14.10;99.90
17215;DHT22;8723;51.502;6.918;2023-05-07T04:38:02;14.00;99.90
17215;DHT22;8723;51.502;6.918;2023-05-07T04:40:29;14.10;99.90
17215;DHT22;8723;51.502;6.918;2023-05-07T04:42:56;14.00;99.90
17215;DHT22;8723;51.502;6.918;2023-05-07T04:45:24;14.00;99.90
17215;DHT22;8723;51.502;6.918;2023-05-07T04:47:51;14.10;99.90
17215;DHT22;8723;51.502;6.918;2023-05-07T04:50:17;14.00;99.90
17215;DHT22;8723;51.502;6.918;2023-05-07T04:52:45;14.00;99.90
17215;DHT22;8723;51.502;6.918;2023-05-07T04:55:12;14.00;99.90
17215;DHT22;8723;51.502;6.918;2023-05-07T04:57:39;14.00;99.90
17215;DHT22;8723;51.502;6.918;2023-05-07T05:00:07;14.00;99.90
17215;DHT22;8723;51.502;6.918;2023-05-07T05:02:36;14.00;99.90
17215;DHT22;8723;51.502;6.918;2023-05-07T05:05:04;14.10;99.90
17215;DHT22;8723;51.502;6.918;2023-05-07T05:07:31;14.10;99.90
17215;DHT22;8723;51.502;6.918;2023-05-07T05:09:58;14.00;99.90
17215;DHT22;8723;51.502;6.918;2023-05-07T05:12:25;14.00;99.90
17215;DHT22;8723;51.502;6.918;2023-05-07T05:14:52;14.00;99.90
17215;DHT22;8723;51.502;6.918;2023-05-07T05:17:19;14.00;99.90
17215;DHT22;8723;51.502;6.918;2023-05-07T05:19:47;14.00;99.90
17215;DHT22;8723;51.502;6.918;2023-05-07T05:22:13;14.00;99.90
17215;DHT22;8723;51.502;6.918;2023-05-07T05:24:40;13.90;99.90
17215;DHT22;8723;51.502;6.918;2023-05-07T05:27:07;14.00;99.90
17215;DHT22;8723;51.502;6.918;2023-05-07T05:29:34;14.00;99.90
17215;DHT22;8723;51.502;6.918;2023-05-07T05:32:01;14.00;99.90
17215;DHT22;8723;51.502;6.918;2023-05-07T05:34:27;14.00;99.90
17215;DHT22;8723;51.502;6.918;2023-05-07T05:36:55;14.10;99.90
17215;DHT22;8723;51.502;6.918;2023-05-07T05:39:23;14.10;99.90
17215;DHT22;8723;51.502;6.918;2023-05-07T05:41:50;14.10;99.90
17215;DHT22;8723;51.502;6.918;2023-05-07T05:44:16;14.20;99.90
17215;DHT22;8723;51.502;6.918;2023-05-07T05:46:44;14.20;99.90
17215;DHT22;8723;51.502;6.918;2023-05-07T05:49:10;14.30;99.90
17215;DHT22;8723;51.502;6.918;2023-05-07T05:51:38;14.30;99.90
17215;DHT22;8723;51.502;6.918;2023-05-07T05:54:06;14.40;99.90
17215;DHT22;8723;51.502;6.918;2023-05-07T05:56:33;14.40;99.90
17215;DHT22;8723;51.502;6.918;2023-05-07T05:59:00;14.50;99.90
17215;DHT22;8723;51.502;6.918;2023-05-07T06:01:27;14.50;99.90
17215;DHT22;8723;51.502;6.918;2023-05-07T06:03:53;14.60;99.90
17215;DHT22;8723;51.502;6.918;2023-05-07T06:06:20;14.70;99.90
17215;DHT22;8723;51.502;6.918;2023-05-07T06:08:47;14.80;99.90
17215;DHT22;8723;51.502;6.918;2023-05-07T06:11:15;14.80;99.90
17215;DHT22;8723;51.502;6.918;2023-05-07T06:13:42;14.90;99.90
17215;DHT22;8723;51.502;6.918;2023-05-07T06:16:09;15.00;99.90
17215;DHT22;8723;51.502;6.918;2023-05-07T06:18:35;15.10;99.90
17215;DHT22;8723;51.502;6.918;2023-05-07T06:21:02;15.20;99.90
17215;DHT22;8723;51.502;6.918;2023-05-07T06:23:29;15.30;99.90
17215;DHT22;8723;51.502;6.918;2023-05-07T06:25:56;15.50;99.90
17215;DHT22;8723;51.502;6.918;2023-05-07T06:28:24;15.50;99.90
17215;DHT22;8723;51.502;6.918;2023-05-07T06:30:53;15.60;99.90
17215;DHT22;8723;51.502;6.918;2023-05-07T06:33:19;15.60;99.90
17215;DHT22;8723;51.502;6.918;2023-05-07T06:35:46;15.70;99.90
17215;DHT22;8723;51.502;6.918;2023-05-07T06:38:13;15.70;99.90
17215;DHT22;8723;51.502;6.918;2023-05-07T06:40:40;15.80;99.90
17215;DHT22;8723;51.502;6.918;2023-05-07T06:43:07;15.80;99.90
17215;DHT22;8723;51.502;6.918;2023-05-07T06:45:35;15.90;99.90
17215;DHT22;8723;51.502;6.918;2023-05-07T06:48:02;15.90;99.90
17215;DHT22;8723;51.502;6.918;2023-05-07T06:50:29;15.90;99.90
17215;DHT22;8723;51.502;6.918;2023-05-07T06:52:56;16.00;99.90
17215;DHT22;8723;51.502;6.918;2023-05-07T06:55:23;16.10;99.90
17215;DHT22;8723;51.502;6.918;2023-05-07T06:57:50;16.20;99.90
17215;DHT22;8723;51.502;6.918;2023-05-07T07:00:17;16.30;99.90
17215;DHT22;8723;51.502;6.918;2023-05-07T07:02:46;16.40;99.90
17215;DHT22;8723;51.502;6.918;2023-05-07T07:05:13;16.50;99.90
17215;DHT22;8723;51.502;6.918;2023-05-07T07:07:39;16.60;99.90
17215;DHT22;8723;51.502;6.918;2023-05-07T07:10:07;16.70;99.90
17215;DHT22;8723;51.502;6.918;2023-05-07T07:12:34;16.70;1.00
17215;DHT22;8723;51.502;6.918;2023-05-07T07:15:01;16.70;1.00
17215;DHT22;8723;51.502;6.918;2023-05-07T07:17:28;16.70;1.00
17215;DHT22;8723;51.502;6.918;2023-05-07T07:19:56;16.80;1.00
17215;DHT22;8723;51.502;6.918;2023-05-07T07:22:23;16.80;1.00
17215;DHT22;8723;51.502;6.918;2023-05-07T07:24:50;16.90;99.90
17215;DHT22;8723;51.502;6.918;2023-05-07T07:27:17;17.00;99.90
17215;DHT22;8723;51.502;6.918;2023-05-07T07:29:44;17.00;99.90
17215;DHT22;8723;51.502;6.918;2023-05-07T07:32:11;17.00;99.90
17215;DHT22;8723;51.502;6.918;2023-05-07T07:34:38;17.10;99.90
17215;DHT22;8723;51.502;6.918;2023-05-07T07:37:06;17.20;99.90
17215;DHT22;8723;51.502;6.918;2023-05-07T07:39:33;17.20;99.90
17215;DHT22;8723;51.502;6.918;2023-05-07T07:42:00;17.20;99.90
17215;DHT22;8723;51.502;6.918;2023-05-07T07:44:28;17.20;99.90
17215;DHT22;8723;51.502;6.918;2023-05-07T07:46:55;17.30;99.90
17215;DHT22;8723;51.502;6.918;2023-05-07T07:49:21;17.30;99.90
17215;DHT22;8723;51.502;6.918;2023-05-07T07:51:48;17.40;99.90
17215;DHT22;8723;51.502;6.918;2023-05-07T07:54:17;17.50;99.90
17215;DHT22;8723;51.502;6.918;2023-05-07T07:56:44;17.50;99.90
17215;DHT22;8723;51.502;6.918;2023-05-07T07:59:11;17.60;99.90
17215;DHT22;8723;51.502;6.918;2023-05-07T08:01:39;17.50;99.90
17215;DHT22;8723;51.502;6.918;2023-05-07T08:04:06;17.50;99.90
17215;DHT22;8723;51.502;6.918;2023-05-07T08:06:33;17.50;99.90
17215;DHT22;8723;51.502;6.918;2023-05-07T08:09:00;17.50;99.90
17215;DHT22;8723;51.502;6.918;2023-05-07T08:11:29;17.80;99.90
17215;DHT22;8723;51.502;6.918;2023-05-07T08:13:56;17.90;99.90
17215;DHT22;8723;51.502;6.918;2023-05-07T08:16:23;17.90;99.90
17215;DHT22;8723;51.502;6.918;2023-05-07T08:18:50;18.00;99.90
17215;DHT22;8723;51.502;6.918;2023-05-07T08:21:17;18.00;99.90
17215;DHT22;8723;51.502;6.918;2023-05-07T08:23:44;18.10;99.90
17215;DHT22;8723;51.502;6.918;2023-05-07T08:26:11;18.20;99.90
17215;DHT22;8723;51.502;6.918;2023-05-07T08:28:39;18.30;99.90
17215;DHT22;8723;51.502;6.918;2023-05-07T08:31:06;18.30;99.90
17215;DHT22;8723;51.502;6.918;2023-05-07T08:33:33;18.30;99.90
17215;DHT22;8723;51.502;6.918;2023-05-07T08:36:00;18.40;99.90
17215;DHT22;8723;51.502;6.918;2023-05-07T08:38:27;18.40;99.90
17215;DHT22;8723;51.502;6.918;2023-05-07T08:40:54;18.40;99.90
17215;DHT22;8723;51.502;6.918;2023-05-07T08:43:21;18.40;99.90
17215;DHT22;8723;51.502;6.918;2023-05-07T08:45:54;18.30;99.90
17215;DHT22;8723;51.502;6.918;2023-05-07T08:48:24;18.40;99.90
17215;DHT22;8723;51.502;6.918;2023-05-07T08:50:52;18.40;99.90
17215;DHT22;8723;51.502;6.918;2023-05-07T08:53:20;18.40;99.90
17215;DHT22;8723;51.502;6.918;2023-05-07T08:55:47;18.40;99.90
17215;DHT22;8723;51.502;6.918;2023-05-07T08:58:15;18.50;99.90
17215;DHT22;8723;51.502;6.918;2023-05-07T09:00:42;18.60;99.90
17215;DHT22;8723;51.502;6.918;2023-05-07T09:03:11;18.70;99.90
17215;DHT22;8723;51.502;6.918;2023-05-07T09:05:41;18.90;99.90
17215;DHT22;8723;51.502;6.918;2023-05-07T09:08:09;19.10;99.90
17215;DHT22;8723;51.502;6.918;2023-05-07T09:10:36;19.20;99.90
17215;DHT22;8723;51.502;6.918;2023-05-07T09:13:03;19.40;99.90
17215;DHT22;8723;51.502;6.918;2023-05-07T09:15:30;19.60;99.90
17215;DHT22;8723;51.502;6.918;2023-05-07T09:17:59;19.90;80.10
17215;DHT22;8723;51.502;6.918;2023-05-07T09:20:31;19.90;46.20
17215;DHT22;8723;51.502;6.918;2023-05-07T09:22:58;19.90;29.60
17215;DHT22;8723;51.502;6.918;2023-05-07T09:25:29;20.00;23.90
17215;DHT22;8723;51.502;6.918;2023-05-07T09:27:57;19.90;13.80
17215;DHT22;8723;51.502;6.918;2023-05-07T09:30:28;19.90;18.80
17215;DHT22;8723;51.502;6.918;2023-05-07T09:32:55;20.00;15.40
17215;DHT22;8723;51.502;6.918;2023-05-07T09:35:23;20.10;10.80
17215;DHT22;8723;51.502;6.918;2023-05-07T09:37:58;20.20;4.80
17215;DHT22;8723;51.502;6.918;2023-05-07T09:40:28;20.20;1.00
17215;DHT22;8723;51.502;6.918;2023-05-07T09:42:56;20.40;1.00
17215;DHT22;8723;51.502;6.918;2023-05-07T09:45:24;20.50;1.00
17215;DHT22;8723;51.502;6.918;2023-05-07T09:47:54;20.50;1.00
17215;DHT22;8723;51.502;6.918;2023-05-07T09:50:25;20.60;1.00
17215;DHT22;8723;51.502;6.918;2023-05-07T09:52:56;20.70;1.00
17215;DHT22;8723;51.502;6.918;2023-05-07T09:55:24;20.90;1.00
17215;DHT22;8723;51.502;6.918;2023-05-07T09:57:54;20.90;1.00
17215;DHT22;8723;51.502;6.918;2023-05-07T10:00:22;21.00;1.00
17215;DHT22;8723;51.502;6.918;2023-05-07T10:02:51;21.10;1.00
17215;DHT22;8723;51.502;6.918;2023-05-07T10:05:19;21.00;1.00
17215;DHT22;8723;51.502;6.918;2023-05-07T10:07:46;20.90;1.00
17215;DHT22;8723;51.502;6.918;2023-05-07T10:10:15;21.00;1.00
17215;DHT22;8723;51.502;6.918;2023-05-07T10:12:42;21.10;1.00
17215;DHT22;8723;51.502;6.918;2023-05-07T10:15:10;21.20;1.00
17215;DHT22;8723;51.502;6.918;2023-05-07T10:17:39;21.20;1.00
17215;DHT22;8723;51.502;6.918;2023-05-07T10:20:07;21.30;1.00
17215;DHT22;8723;51.502;6.918;2023-05-07T10:22:38;21.30;1.00
17215;DHT22;8723;51.502;6.918;2023-05-07T10:25:08;21.50;1.00
17215;DHT22;8723;51.502;6.918;2023-05-07T10:27:41;21.50;1.00
17215;DHT22;8723;51.502;6.918;2023-05-07T10:30:22;21.70;1.00
17215;DHT22;8723;51.502;6.918;2023-05-07T10:32:55;21.70;1.00
17215;DHT22;8723;51.502;6.918;2023-05-07T10:35:26;21.70;1.00
17215;DHT22;8723;51.502;6.918;2023-05-07T10:37:56;21.80;1.00
17215;DHT22;8723;51.502;6.918;2023-05-07T10:40:24;21.80;1.00
17215;DHT22;8723;51.502;6.918;2023-05-07T10:42:56;22.00;1.00
17215;DHT22;8723;51.502;6.918;2023-05-07T10:45:25;22.00;1.00
17215;DHT22;8723;51.502;6.918;2023-05-07T10:48:12;22.10;1.00
17215;DHT22;8723;51.502;6.918;2023-05-07T10:50:40;22.10;1.00
17215;DHT22;8723;51.502;6.918;2023-05-07T10:53:24;22.20;1.00
17215;DHT22;8723;51.502;6.918;2023-05-07T10:56:25;22.40;1.00
17215;DHT22;8723;51.502;6.918;2023-05-07T10:58:56;22.30;1.00
17215;DHT22;8723;51.502;6.918;2023-05-07T11:01:52;22.50;1.00
17215;DHT22;8723;51.502;6.918;2023-05-07T11:04:19;22.50;1.00
17215;DHT22;8723;51.502;6.918;2023-05-07T11:07:25;22.70;1.00
17215;DHT22;8723;51.502;6.918;2023-05-07T11:10:01;22.70;1.00
17215;DHT22;8723;51.502;6.918;2023-05-07T11:12:48;22.80;1.00
17215;DHT22;8723;51.502;6.918;2023-05-07T11:15:36;22.80;1.00
17215;DHT22;8723;51.502;6.918;2023-05-07T11:18:04;22.90;1.00
17215;DHT22;8723;51.502;6.918;2023-05-07T11:20:52;23.00;1.00
17215;DHT22;8723;51.502;6.918;2023-05-07T11:26:45;22.80;1.00
17215;DHT22;8723;51.502;6.918;2023-05-07T11:29:14;22.60;1.00
17215;DHT22;8723;51.502;6.918;2023-05-07T11:31:42;22.60;1.00
17215;DHT22;8723;51.502;6.918;2023-05-07T11:34:11;22.50;1.00
17215;DHT22;8723;51.502;6.918;2023-05-07T11:36:42;22.60;1.00
17215;DHT22;8723;51.502;6.918;2023-05-07T11:39:27;22.60;1.00
17215;DHT22;8723;51.502;6.918;2023-05-07T11:41:58;22.70;1.00
17215;DHT22;8723;51.502;6.918;2023-05-07T11:44:25;22.90;1.00
17215;DHT22;8723;51.502;6.918;2023-05-07T11:47:07;22.80;1.00
17215;DHT22;8723;51.502;6.918;2023-05-07T11:49:34;22.50;1.00
17215;DHT22;8723;51.502;6.918;2023-05-07T11:52:01;22.50;1.00
17215;DHT22;8723;51.502;6.918;2023-05-07T11:54:35;22.60;1.00
17215;DHT22;8723;51.502;6.918;2023-05-07T11:57:03;22.80;1.00
17215;DHT22;8723;51.502;6.918;2023-05-07T11:59:30;22.90;1.00
17215;DHT22;8723;51.502;6.918;2023-05-07T12:02:04;23.10;1.00
17215;DHT22;8723;51.502;6.918;2023-05-07T12:04:32;23.10;1.00
17215;DHT22;8723;51.502;6.918;2023-05-07T12:07:00;23.20;1.00
17215;DHT22;8723;51.502;6.918;2023-05-07T12:09:27;23.20;1.00
17215;DHT22;8723;51.502;6.918;2023-05-07T12:11:55;23.10;1.00
17215;DHT22;8723;51.502;6.918;2023-05-07T12:14:22;23.10;1.00
17215;DHT22;8723;51.502;6.918;2023-05-07T12:16:53;23.10;1.00
17215;DHT22;8723;51.502;6.918;2023-05-07T12:19:20;23.20;1.00
17215;DHT22;8723;51.502;6.918;2023-05-07T12:21:49;23.30;1.00
17215;DHT22;8723;51.502;6.918;2023-05-07T12:24:16;23.30;1.00
17215;DHT22;8723;51.502;6.918;2023-05-07T12:26:43;23.20;1.00
17215;DHT22;8723;51.502;6.918;2023-05-07T12:29:10;23.20;1.00
17215;DHT22;8723;51.502;6.918;2023-05-07T12:31:40;23.10;1.00
17215;DHT22;8723;51.502;6.918;2023-05-07T12:34:07;22.90;1.00
17215;DHT22;8723;51.502;6.918;2023-05-07T12:36:37;22.80;1.00
17215;DHT22;8723;51.502;6.918;2023-05-07T12:39:06;22.60;1.00
17215;DHT22;8723;51.502;6.918;2023-05-07T12:41:36;22.40;1.00
17215;DHT22;8723;51.502;6.918;2023-05-07T12:44:04;22.20;1.00
17215;DHT22;8723;51.502;6.918;2023-05-07T12:46:31;22.10;1.00
17215;DHT22;8723;51.502;6.918;2023-05-07T12:48:58;22.10;1.00
17215;DHT22;8723;51.502;6.918;2023-05-07T12:51:27;22.00;1.00
17215;DHT22;8723;51.502;6.918;2023-05-07T12:53:56;21.90;1.00
17215;DHT22;8723;51.502;6.918;2023-05-07T12:56:24;21.90;1.00
17215;DHT22;8723;51.502;6.918;2023-05-07T12:58:51;21.80;1.00
17215;DHT22;8723;51.502;6.918;2023-05-07T13:01:29;21.80;1.00
17215;DHT22;8723;51.502;6.918;2023-05-07T13:03:58;21.80;1.00
17215;DHT22;8723;51.502;6.918;2023-05-07T13:06:27;21.60;1.00
17215;DHT22;8723;51.502;6.918;2023-05-07T13:08:53;21.50;1.00
17215;DHT22;8723;51.502;6.918;2023-05-07T13:11:20;21.40;1.00
17215;DHT22;8723;51.502;6.918;2023-05-07T13:13:49;21.30;1.00
17215;DHT22;8723;51.502;6.918;2023-05-07T13:16:15;21.20;1.00
17215;DHT22;8723;51.502;6.918;2023-05-07T13:18:42;21.20;1.00
17215;DHT22;8723;51.502;6.918;2023-05-07T13:21:11;21.20;1.00
17215;DHT22;8723;51.502;6.918;2023-05-07T13:23:39;21.10;1.00
17215;DHT22;8723;51.502;6.918;2023-05-07T13:26:06;21.10;1.00
17215;DHT22;8723;51.502;6.918;2023-05-07T13:28:33;21.10;1.00
17215;DHT22;8723;51.502;6.918;2023-05-07T13:31:01;21.00;1.00
17215;DHT22;8723;51.502;6.918;2023-05-07T13:33:28;21.00;1.00
17215;DHT22;8723;51.502;6.918;2023-05-07T13:35:55;20.90;1.00
17215;DHT22;8723;51.502;6.918;2023-05-07T13:38:23;20.90;1.00
17215;DHT22;8723;51.502;6.918;2023-05-07T13:40:50;20.90;1.00
17215;DHT22;8723;51.502;6.918;2023-05-07T13:43:16;20.90;1.00
17215;DHT22;8723;51.502;6.918;2023-05-07T13:45:44;20.80;1.00
17215;DHT22;8723;51.502;6.918;2023-05-07T13:48:12;20.40;1.00
17215;DHT22;8723;51.502;6.918;2023-05-07T13:50:39;20.20;51.20
17215;DHT22;8723;51.502;6.918;2023-05-07T13:53:07;19.90;51.30
17215;DHT22;8723;51.502;6.918;2023-05-07T13:55:34;19.80;99.90
17215;DHT22;8723;51.502;6.918;2023-05-07T13:58:02;19.60;99.90
17215;DHT22;8723;51.502;6.918;2023-05-07T14:00:29;19.40;99.90
17215;DHT22;8723;51.502;6.918;2023-05-07T14:02:56;19.30;99.90
17215;DHT22;8723;51.502;6.918;2023-05-07T14:05:25;19.20;99.90
17215;DHT22;8723;51.502;6.918;2023-05-07T14:07:53;19.10;99.90
17215;DHT22;8723;51.502;6.918;2023-05-07T14:10:20;18.90;1.00
17215;DHT22;8723;51.502;6.918;2023-05-07T14:12:47;18.80;1.00
17215;DHT22;8723;51.502;6.918;2023-05-07T14:15:14;18.60;1.00
17215;DHT22;8723;51.502;6.918;2023-05-07T14:17:41;18.50;1.00
17215;DHT22;8723;51.502;6.918;2023-05-07T14:20:09;18.50;99.90
17215;DHT22;8723;51.502;6.918;2023-05-07T14:22:37;18.40;99.90
17215;DHT22;8723;51.502;6.918;2023-05-07T14:25:05;18.40;99.90
17215;DHT22;8723;51.502;6.918;2023-05-07T14:27:32;18.30;99.90
17215;DHT22;8723;51.502;6.918;2023-05-07T14:29:59;18.20;1.00
17215;DHT22;8723;51.502;6.918;2023-05-07T14:32:26;18.30;1.00
17215;DHT22;8723;51.502;6.918;2023-05-07T14:34:53;18.30;38.30
17215;DHT22;8723;51.502;6.918;2023-05-07T14:37:20;18.30;1.00
17215;DHT22;8723;51.502;6.918;2023-05-07T14:39:48;18.30;99.90
17215;DHT22;8723;51.502;6.918;2023-05-07T14:42:15;18.30;99.90
17215;DHT22;8723;51.502;6.918;2023-05-07T14:44:42;18.40;6.40
17215;DHT22;8723;51.502;6.918;2023-05-07T14:47:10;18.40;99.90
17215;DHT22;8723;51.502;6.918;2023-05-07T14:49:37;18.40;91.70
17215;DHT22;8723;51.502;6.918;2023-05-07T14:52:04;18.40;99.90
17215;DHT22;8723;51.502;6.918;2023-05-07T14:54:33;18.50;1.00
17215;DHT22;8723;51.502;6.918;2023-05-07T14:57:02;18.60;99.90
17215;DHT22;8723;51.502;6.918;2023-05-07T14:59:30;18.60;99.90
17215;DHT22;8723;51.502;6.918;2023-05-07T15:01:57;18.60;99.90
17215;DHT22;8723;51.502;6.918;2023-05-07T15:04:24;18.70;10.20
17215;DHT22;8723;51.502;6.918;2023-05-07T15:06:51;18.70;45.00
17215;DHT22;8723;51.502;6.918;2023-05-07T15:09:19;18.80;99.90
17215;DHT22;8723;51.502;6.918;2023-05-07T15:11:46;18.90;15.50
17215;DHT22;8723;51.502;6.918;2023-05-07T15:14:15;19.00;67.80
17215;DHT22;8723;51.502;6.918;2023-05-07T15:16:41;18.90;99.90
17215;DHT22;8723;51.502;6.918;2023-05-07T15:19:08;19.00;1.00
17215;DHT22;8723;51.502;6.918;2023-05-07T15:21:35;19.10;1.00
17215;DHT22;8723;51.502;6.918;2023-05-07T15:24:02;19.10;99.90
17215;DHT22;8723;51.502;6.918;2023-05-07T15:26:29;19.10;1.00
17215;DHT22;8723;51.502;6.918;2023-05-07T15:28:56;19.20;1.00
17215;DHT22;8723;51.502;6.918;2023-05-07T15:31:24;19.30;1.00
17215;DHT22;8723;51.502;6.918;2023-05-07T15:33:51;19.30;1.00
17215;DHT22;8723;51.502;6.918;2023-05-07T15:36:19;19.40;1.00
17215;DHT22;8723;51.502;6.918;2023-05-07T15:38:46;19.40;1.00
17215;DHT22;8723;51.502;6.918;2023-05-07T15:41:14;19.40;1.00
17215;DHT22;8723;51.502;6.918;2023-05-07T15:43:44;19.50;1.00
17215;DHT22;8723;51.502;6.918;2023-05-07T15:46:11;19.50;1.00
17215;DHT22;8723;51.502;6.918;2023-05-07T15:48:39;19.50;1.00
17215;DHT22;8723;51.502;6.918;2023-05-07T15:51:06;19.60;1.00
17215;DHT22;8723;51.502;6.918;2023-05-07T15:53:34;19.50;1.00
17215;DHT22;8723;51.502;6.918;2023-05-07T15:56:02;19.40;1.00
17215;DHT22;8723;51.502;6.918;2023-05-07T15:58:28;19.30;1.00
17215;DHT22;8723;51.502;6.918;2023-05-07T16:00:55;19.30;1.00
17215;DHT22;8723;51.502;6.918;2023-05-07T16:03:22;19.30;99.90